createdAt,value
2023-05-10T00:00:39.810Z,99911.13
2023-05-10T00:03:08.280Z,99910.53
2023-05-10T00:05:36.704Z,99910.22
2023-05-10T00:08:05.043Z,99907.00
2023-05-10T00:10:33.063Z,99913.47
2023-05-10T00:13:01.298Z,99896.75
2023-05-10T00:15:31.439Z,99914.66
2023-05-10T00:18:01.461Z,99910.53
2023-05-10T00:20:29.913Z,99914.66
2023-05-10T00:22:58.722Z,99907.91
2023-05-10T00:25:27.325Z,99918.19
2023-05-10T00:27:56.295Z,99906.88
2023-05-10T00:30:24.632Z,99909.97
2023-05-10T00:32:54.296Z,99921.13
2023-05-10T00:35:24.800Z,99914.94
2023-05-10T00:37:53.006Z,99928.00
2023-05-10T00:40:23.971Z,99913.91
2023-05-10T00:42:57.235Z,99915.25
2023-05-10T00:45:26.776Z,99917.75
2023-05-10T00:47:57.173Z,99923.47
2023-05-10T00:50:27.086Z,99926.88
2023-05-10T00:52:55.600Z,99928.47
2023-05-10T00:55:24.638Z,99922.31
2023-05-10T00:57:53.523Z,99919.97
2023-05-10T01:00:22.667Z,99911.31
2023-05-10T01:02:52.214Z,99927.16
2023-05-10T01:05:20.805Z,99923.94
2023-05-10T01:07:51.052Z,99919.56
2023-05-10T01:10:19.487Z,99926.44
2023-05-10T01:12:49.273Z,99922.78
2023-05-10T01:15:19.167Z,99934.50
2023-05-10T01:17:49.414Z,99920.88
2023-05-10T01:20:18.397Z,99933.75
2023-05-10T01:23:23.041Z,99926.03
2023-05-10T01:26:27.024Z,99935.69
2023-05-10T01:29:21.209Z,99937.28
2023-05-10T01:32:14.676Z,99937.16
2023-05-10T01:34:55.160Z,99945.50
2023-05-10T01:37:28.195Z,99946.97
2023-05-10T01:40:02.445Z,99946.25
2023-05-10T01:42:37.501Z,99941.53
2023-05-10T01:45:15.450Z,99944.03
2023-05-10T01:47:46.838Z,99948.00
2023-05-10T01:50:20.192Z,99948.56
2023-05-10T01:52:54.010Z,99954.44
2023-05-10T01:55:25.405Z,99949.91
2023-05-10T01:58:00.724Z,99953.88
2023-05-10T02:00:31.285Z,99960.59
2023-05-10T02:03:04.170Z,99964.56
2023-05-10T02:05:35.509Z,99968.38
2023-05-10T02:08:07.144Z,99960.91
2023-05-10T02:10:37.183Z,99958.25
2023-05-10T02:13:09.587Z,99969.41
2023-05-10T02:15:39.548Z,99971.16
2023-05-10T02:18:11.220Z,99966.91
2023-05-10T02:20:40.825Z,99969.09
2023-05-10T02:23:11.583Z,99965.16
2023-05-10T02:25:41.135Z,99962.50
2023-05-10T02:28:12.407Z,99973.63
2023-05-10T02:30:41.264Z,99971.47
2023-05-10T02:33:11.775Z,99968.53
2023-05-10T02:35:40.542Z,99976.41
2023-05-10T02:38:12.593Z,99972.75
2023-05-10T02:40:43.674Z,99965.16
2023-05-10T02:43:15.483Z,99971.88
2023-05-10T02:45:45.373Z,99978.78
2023-05-10T02:48:15.065Z,99976.00
2023-05-10T02:50:47.337Z,99976.00
2023-05-10T02:53:22.895Z,99973.38
2023-05-10T02:55:53.935Z,99981.13
2023-05-10T02:58:22.415Z,99973.22
2023-05-10T03:00:51.374Z,99974.97
2023-05-10T03:03:22.108Z,99976.44
2023-05-10T03:05:55.121Z,99978.31
2023-05-10T03:08:24.411Z,99976.28
2023-05-10T03:11:03.811Z,99977.16
2023-05-10T03:13:38.639Z,99981.25
2023-05-10T03:16:12.678Z,99985.38
2023-05-10T03:18:47.006Z,99981.09
2023-05-10T03:21:18.784Z,99980.09
2023-05-10T03:23:53.315Z,99986.81
2023-05-10T03:26:27.661Z,99991.25
2023-05-10T03:29:04.403Z,99993.13
2023-05-10T03:31:32.910Z,99990.34
2023-05-10T03:34:03.710Z,100002.34
2023-05-10T03:36:34.531Z,99994.75
2023-05-10T03:39:03.336Z,99996.22
2023-05-10T03:41:31.715Z,99999.00
2023-05-10T03:44:02.959Z,99984.50
2023-05-10T03:46:31.251Z,99985.53
2023-05-10T03:49:00.291Z,99996.78
2023-05-10T03:51:29.933Z,99991.50
2023-05-10T03:53:58.216Z,99988.59
2023-05-10T03:56:29.303Z,99986.81
2023-05-10T03:58:57.451Z,99985.94
2023-05-10T04:01:25.909Z,99983.91
2023-05-10T04:03:56.539Z,99984.66
2023-05-10T04:06:24.862Z,99979.66
2023-05-10T04:08:56.271Z,99983.91
2023-05-10T04:11:25.646Z,99978.78
2023-05-10T04:13:54.156Z,99985.53
2023-05-10T04:16:22.364Z,99995.91
2023-05-10T04:18:50.681Z,99992.41
2023-05-10T04:21:19.067Z,100005.00
2023-05-10T04:23:47.425Z,100005.28
2023-05-10T04:26:17.387Z,100009.41
2023-05-10T04:28:47.985Z,100009.81
2023-05-10T04:31:16.636Z,100020.09
2023-05-10T04:33:44.932Z,100017.75
2023-05-10T04:36:16.067Z,100017.91
2023-05-10T04:38:44.764Z,100022.13
2023-05-10T04:41:13.895Z,100019.50
2023-05-10T04:43:44.025Z,100021.41
2023-05-10T04:46:12.232Z,100016.13
2023-05-10T04:48:41.445Z,100019.34
2023-05-10T04:51:20.281Z,100017.75
2023-05-10T04:54:04.693Z,100028.31
2023-05-10T04:56:34.760Z,100033.88
2023-05-10T04:59:04.532Z,100034.00
2023-05-10T05:01:35.815Z,100037.53
2023-05-10T05:04:04.246Z,100041.63
2023-05-10T05:06:34.318Z,100042.81
2023-05-10T05:09:05.897Z,100054.22
2023-05-10T05:11:41.188Z,100046.03
2023-05-10T05:14:17.042Z,100049.56
2023-05-10T05:16:50.413Z,100047.34
2023-05-10T05:19:21.647Z,100050.44
2023-05-10T05:22:00.567Z,100050.16
2023-05-10T05:24:28.872Z,100047.34
2023-05-10T05:27:06.944Z,100050.13
2023-05-10T05:29:36.467Z,100040.47
2023-05-10T05:32:09.821Z,100049.13
2023-05-10T05:34:38.231Z,100039.56
2023-05-10T05:37:06.826Z,100040.44
2023-05-10T05:39:38.308Z,100054.50
2023-05-10T05:42:06.865Z,100043.22
2023-05-10T05:44:37.291Z,100045.84
2023-05-10T05:47:06.369Z,100054.50
2023-05-10T05:49:37.630Z,100052.13
2023-05-10T05:52:06.735Z,100055.06
2023-05-10T05:54:34.891Z,100064.47
2023-05-10T05:57:03.153Z,100061.38
2023-05-10T05:59:32.575Z,100070.91
2023-05-10T06:02:02.465Z,100064.88
2023-05-10T06:04:31.054Z,100070.50
2023-05-10T06:06:59.418Z,100070.19
2023-05-10T06:09:28.040Z,100073.66
2023-05-10T06:11:56.362Z,100077.31
2023-05-10T06:14:24.844Z,100079.13
2023-05-10T06:16:53.412Z,100089.38
2023-05-10T06:19:23.352Z,100087.94
2023-05-10T06:21:53.712Z,100091.56
2023-05-10T06:24:22.780Z,100093.34
2023-05-10T06:26:51.816Z,100092.03
2023-05-10T06:29:19.977Z,100093.94
2023-05-10T06:31:48.722Z,100091.13
2023-05-10T06:34:17.369Z,100098.56
2023-05-10T06:36:47.718Z,100094.44
2023-05-10T06:39:17.274Z,100099.59
2023-05-10T06:41:45.798Z,100098.06
2023-05-10T06:44:14.190Z,100094.31
2023-05-10T06:46:43.213Z,100093.75
2023-05-10T06:49:11.621Z,100094.28
2023-05-10T06:51:39.741Z,100091.16
2023-05-10T06:54:09.790Z,100083.44
2023-05-10T06:56:38.003Z,100098.91
2023-05-10T06:59:06.768Z,100093.13
2023-05-10T07:01:35.330Z,100098.41
2023-05-10T07:04:03.554Z,100097.47
2023-05-10T07:06:34.810Z,100093.22
2023-05-10T07:09:03.222Z,100091.91
2023-05-10T07:11:32.794Z,100100.78
2023-05-10T07:14:01.047Z,100094.47
2023-05-10T07:16:29.689Z,100106.19
2023-05-10T07:18:58.123Z,100099.69
2023-05-10T07:21:29.381Z,100100.75
2023-05-10T07:23:57.658Z,100093.97
2023-05-10T07:26:26.203Z,100099.34
2023-05-10T07:28:56.349Z,100103.56
2023-05-10T07:31:24.434Z,100098.19
2023-05-10T07:33:52.666Z,100108.22
2023-05-10T07:36:21.161Z,100094.69
2023-05-10T07:38:50.821Z,100110.38
2023-05-10T07:41:18.913Z,100109.00
2023-05-10T07:43:47.570Z,100100.69
2023-05-10T07:46:17.526Z,100105.94
2023-05-10T07:48:45.634Z,100108.13
2023-05-10T07:51:13.851Z,100113.06
2023-05-10T07:53:42.861Z,100112.31
2023-05-10T07:56:26.390Z,100106.56
2023-05-10T07:58:54.931Z,100110.22
2023-05-10T08:01:25.351Z,100111.31
2023-05-10T08:03:54.685Z,100109.81
2023-05-10T08:06:23.465Z,100112.00
2023-05-10T08:08:53.118Z,100117.13
2023-05-10T08:11:22.135Z,100113.72
2023-05-10T08:13:52.767Z,100111.53
2023-05-10T08:16:21.654Z,100108.00
2023-05-10T08:18:51.654Z,100113.88
2023-05-10T08:21:20.332Z,100111.34
2023-05-10T08:23:52.395Z,100117.41
2023-05-10T08:26:22.023Z,100111.75
2023-05-10T08:28:50.510Z,100112.94
2023-05-10T08:31:19.275Z,100110.69
2023-05-10T08:33:47.569Z,100118.06
2023-05-10T08:36:22.911Z,100115.13
2023-05-10T08:38:52.490Z,100117.81
2023-05-10T08:41:22.856Z,100121.00
2023-05-10T08:45:19.544Z,100122.66
2023-05-10T08:47:59.547Z,100128.59
2023-05-10T08:50:33.596Z,100126.88
2023-05-10T08:53:07.119Z,100130.97
2023-05-10T08:55:59.772Z,100130.06
2023-05-10T08:58:39.080Z,100137.59
2023-05-10T09:01:18.788Z,100124.09
2023-05-10T09:04:32.427Z,100133.06
2023-05-10T09:07:55.960Z,100135.88
2023-05-10T09:10:28.249Z,100129.78
2023-05-10T09:12:59.379Z,100141.38
2023-05-10T09:15:27.990Z,100141.34
2023-05-10T09:17:59.240Z,100143.44
2023-05-10T09:20:27.574Z,100154.03
2023-05-10T09:22:56.022Z,100139.06
2023-05-10T09:25:25.985Z,100143.69
2023-05-10T09:27:54.805Z,100145.16
2023-05-10T09:30:27.387Z,100147.97
2023-05-10T09:32:56.729Z,100146.88
2023-05-10T09:35:29.325Z,100150.78
2023-05-10T09:38:03.211Z,100141.84
2023-05-10T09:40:33.554Z,100146.84
2023-05-10T09:43:03.297Z,100142.22
2023-05-10T09:45:33.163Z,100145.81
2023-05-10T09:48:05.332Z,100167.16
2023-05-10T09:50:35.185Z,100171.88
2023-05-10T09:53:05.118Z,100159.06
2023-05-10T09:55:43.921Z,100156.09
2023-05-10T09:58:12.732Z,100161.50
2023-05-10T10:00:42.862Z,100170.59
2023-05-10T10:03:15.006Z,100172.78
2023-05-10T10:05:44.960Z,100177.56
2023-05-10T10:08:14.263Z,100171.03
2023-05-10T10:10:46.438Z,100173.19
2023-05-10T10:13:18.188Z,100169.34
2023-05-10T10:15:52.215Z,100166.97
2023-05-10T10:18:25.359Z,100173.47
2023-05-10T10:20:56.137Z,100171.44
2023-05-10T10:23:24.703Z,100162.19
2023-05-10T10:25:56.389Z,100173.72
2023-05-10T10:28:34.654Z,100163.34
2023-05-10T10:31:16.034Z,100174.59
2023-05-10T10:34:03.474Z,100171.56
2023-05-10T10:36:32.251Z,100174.50
2023-05-10T10:39:05.712Z,100181.94
2023-05-10T10:41:38.422Z,100185.84
2023-05-10T10:44:37.586Z,100187.59
2023-05-10T10:47:30.766Z,100183.41
2023-05-10T10:50:07.251Z,100189.13
2023-05-10T10:52:37.062Z,100183.75
2023-05-10T10:55:09.296Z,100185.41
2023-05-10T10:57:50.684Z,100177.78
2023-05-10T11:00:31.730Z,100173.91
2023-05-10T11:03:07.359Z,100175.41
2023-05-10T11:05:42.551Z,100176.16
2023-05-10T11:08:13.896Z,100182.94
2023-05-10T11:10:51.116Z,100169.69
2023-05-10T11:13:30.246Z,100175.97
2023-05-10T11:16:00.484Z,100181.78
2023-05-10T11:18:30.456Z,100184.31
2023-05-10T11:21:01.154Z,100171.97
2023-05-10T11:23:33.893Z,100178.00
2023-05-10T11:26:03.008Z,100189.59
2023-05-10T11:28:33.843Z,100188.88
2023-05-10T11:31:04.530Z,100195.03
2023-05-10T11:33:32.973Z,100180.41
2023-05-10T11:36:02.579Z,100190.31
2023-05-10T11:38:36.313Z,100195.59
2023-05-10T11:41:04.785Z,100194.63
2023-05-10T11:43:34.441Z,100190.84
2023-05-10T11:46:02.648Z,100196.31
2023-05-10T11:48:32.167Z,100195.69
2023-05-10T11:51:00.328Z,100189.66
2023-05-10T11:53:29.262Z,100191.97
2023-05-10T11:55:59.114Z,100193.00
2023-05-10T11:58:27.327Z,100196.06
2023-05-10T12:00:57.050Z,100195.22
2023-05-10T12:03:25.620Z,100198.25
2023-05-10T12:05:54.129Z,100206.78
2023-05-10T12:08:24.505Z,100198.78
2023-05-10T12:10:53.352Z,100198.25
2023-05-10T12:13:22.494Z,100193.59
2023-05-10T12:15:51.016Z,100187.69
2023-05-10T12:18:25.715Z,100185.00
2023-05-10T12:20:54.501Z,100185.50
2023-05-10T12:23:24.150Z,100187.00
2023-05-10T12:25:55.272Z,100188.97
2023-05-10T12:28:23.446Z,100186.78
2023-05-10T12:30:56.940Z,100199.75
2023-05-10T12:33:27.017Z,100189.91
2023-05-10T12:35:57.339Z,100194.56
2023-05-10T12:38:30.877Z,100198.47
2023-05-10T12:41:00.375Z,100203.66
2023-05-10T12:43:28.873Z,100202.75
2023-05-10T12:45:57.441Z,100201.88
2023-05-10T12:48:27.100Z,100202.31
2023-05-10T12:50:55.355Z,100209.94
2023-05-10T12:53:23.988Z,100207.03
2023-05-10T12:55:52.702Z,100212.09
2023-05-10T13:00:58.098Z,100200.94
2023-05-10T13:03:28.444Z,100206.00
2023-05-10T13:05:56.681Z,100204.03
2023-05-10T13:08:26.424Z,100201.31
2023-05-10T13:10:55.007Z,100203.84
2023-05-10T13:13:23.288Z,100208.38
2023-05-10T13:15:52.293Z,100212.44
2023-05-10T13:18:20.722Z,100208.47
2023-05-10T13:20:50.576Z,100206.78
2023-05-10T13:23:18.750Z,100212.31
2023-05-10T13:25:47.150Z,100209.25
2023-05-10T13:28:15.883Z,100214.41
2023-05-10T13:30:44.306Z,100206.50
2023-05-10T13:33:12.449Z,100205.53
2023-05-10T13:35:41.327Z,100207.31
2023-05-10T13:38:11.254Z,100201.13
2023-05-10T13:40:39.919Z,100202.31
2023-05-10T13:43:08.604Z,100198.41
2023-05-10T13:45:38.576Z,100201.44
2023-05-10T13:48:07.146Z,100199.66
2023-05-10T13:50:35.646Z,100201.03
2023-05-10T13:53:04.260Z,100205.59
2023-05-10T13:55:34.625Z,100202.59
2023-05-10T13:58:02.867Z,100201.41
2023-05-10T14:00:31.636Z,100195.06
2023-05-10T14:03:00.280Z,100195.44
2023-05-10T14:05:29.598Z,100207.84
2023-05-10T14:07:58.357Z,100193.47
2023-05-10T14:10:26.928Z,100193.34
2023-05-10T14:12:56.677Z,100191.94
2023-05-10T14:15:24.729Z,100188.75
2023-05-10T14:17:53.602Z,100193.59
2023-05-10T14:20:22.304Z,100192.13
2023-05-10T14:22:50.871Z,100192.56
2023-05-10T14:25:20.242Z,100189.13
2023-05-10T14:27:48.796Z,100186.94
2023-05-10T14:30:19.284Z,100186.88
2023-05-10T14:32:47.673Z,100182.03
2023-05-10T14:35:18.403Z,100176.00
2023-05-10T14:37:47.850Z,100181.94
2023-05-10T14:40:16.173Z,100182.63
2023-05-10T14:42:46.127Z,100174.13
2023-05-10T14:45:15.087Z,100180.84
2023-05-10T14:47:47.888Z,100189.22
2023-05-10T14:50:28.254Z,100187.03
2023-05-10T14:53:03.686Z,100184.94
2023-05-10T14:55:32.193Z,100188.31
2023-05-10T14:58:00.457Z,100183.34
2023-05-10T15:00:30.797Z,100180.25
2023-05-10T15:03:00.973Z,100178.97
2023-05-10T15:05:30.282Z,100187.13
2023-05-10T15:07:58.886Z,100179.75
2023-05-10T15:10:27.263Z,100184.31
2023-05-10T15:12:55.912Z,100178.47
2023-05-10T15:15:24.965Z,100180.94
2023-05-10T15:17:53.420Z,100180.47
2023-05-10T15:20:23.094Z,100179.56
2023-05-10T15:22:52.777Z,100182.84
2023-05-10T15:25:21.401Z,100176.16
2023-05-10T15:27:50.257Z,100180.06
2023-05-10T15:30:18.775Z,100181.41
2023-05-10T15:32:46.901Z,100186.00
2023-05-10T15:35:16.029Z,100189.53
2023-05-10T15:37:45.626Z,100184.38
2023-05-10T15:40:14.672Z,100181.78
2023-05-10T15:42:42.941Z,100184.66
2023-05-10T15:45:13.093Z,100190.50
2023-05-10T15:47:41.437Z,100193.75
2023-05-10T15:50:11.110Z,100187.41
2023-05-10T15:52:39.385Z,100198.72
2023-05-10T15:55:13.912Z,100191.31
2023-05-10T15:57:43.903Z,100191.16
2023-05-10T16:00:14.938Z,100191.53
2023-05-10T16:02:43.386Z,100199.59
2023-05-10T16:05:12.346Z,100197.25
2023-05-10T16:07:41.990Z,100193.16
2023-05-10T16:10:12.805Z,100199.06
2023-05-10T16:12:41.366Z,100197.38
2023-05-10T16:15:10.785Z,100200.13
2023-05-10T16:17:38.983Z,100192.09
2023-05-10T16:20:09.656Z,100196.59
2023-05-10T16:22:38.254Z,100194.13
2023-05-10T16:25:08.611Z,100203.47
2023-05-10T16:27:38.304Z,100198.50
2023-05-10T16:30:07.729Z,100202.69
2023-05-10T16:32:36.094Z,100198.66
2023-05-10T16:35:05.056Z,100201.94
2023-05-10T16:37:33.287Z,100195.50
2023-05-10T16:40:02.015Z,100196.41
2023-05-10T16:42:30.812Z,100201.03
2023-05-10T16:45:07.246Z,100200.59
2023-05-10T16:47:36.079Z,100200.31
2023-05-10T16:50:05.598Z,100212.69
2023-05-10T16:52:34.456Z,100199.53
2023-05-10T16:55:03.302Z,100208.47
2023-05-10T16:57:32.915Z,100206.00
2023-05-10T17:00:02.326Z,100211.91
2023-05-10T17:02:30.534Z,100208.31
2023-05-10T17:04:59.135Z,100209.69
2023-05-10T17:07:29.358Z,100219.38
2023-05-10T17:09:59.085Z,100215.38
2023-05-10T17:12:27.590Z,100214.97
2023-05-10T17:14:56.032Z,100212.75
2023-05-10T17:17:25.819Z,100214.72
2023-05-10T17:19:54.898Z,100210.09
2023-05-10T17:22:23.333Z,100227.91
2023-05-10T17:24:51.796Z,100217.59
2023-05-10T17:27:20.149Z,100208.72
2023-05-10T17:29:49.747Z,100220.25
2023-05-10T17:32:17.764Z,100220.13
2023-05-10T17:34:49.718Z,100222.72
2023-05-10T17:37:24.185Z,100225.91
2023-05-10T17:39:53.613Z,100226.31
2023-05-10T17:42:21.801Z,100219.75
2023-05-10T17:44:51.105Z,100221.72
2023-05-10T17:47:19.899Z,100219.59
2023-05-10T17:49:51.405Z,100225.19
2023-05-10T17:52:21.471Z,100229.72
2023-05-10T17:54:50.105Z,100220.84
2023-05-10T17:57:19.073Z,100219.78
2023-05-10T17:59:51.971Z,100215.78
2023-05-10T18:02:20.218Z,100224.78
2023-05-10T18:04:57.574Z,100226.28
2023-05-10T18:07:29.932Z,100219.72
2023-05-10T18:10:05.456Z,100227.53
2023-05-10T18:12:34.887Z,100221.44
2023-05-10T18:15:03.412Z,100216.44
2023-05-10T18:17:33.487Z,100221.91
2023-05-10T18:20:03.173Z,100219.56
2023-05-10T18:22:31.105Z,100220.53
2023-05-10T18:24:59.352Z,100222.38
2023-05-10T18:27:28.360Z,100216.13
2023-05-10T18:29:56.901Z,100221.81
2023-05-10T18:32:25.591Z,100223.22
2023-05-10T18:34:55.658Z,100220.00
2023-05-10T18:37:26.090Z,100225.88
2023-05-10T18:39:54.557Z,100221.06
2023-05-10T18:42:23.388Z,100228.81
2023-05-10T18:44:51.883Z,100230.81
2023-05-10T18:47:22.749Z,100224.69
2023-05-10T18:49:50.988Z,100233.31
2023-05-10T18:52:19.470Z,100230.00
2023-05-10T18:54:50.305Z,100232.97
2023-05-10T18:57:18.698Z,100230.34
2023-05-10T18:59:47.276Z,100239.03
2023-05-10T19:02:19.756Z,100238.06
2023-05-10T19:04:47.950Z,100244.84
2023-05-10T19:07:16.212Z,100246.31
2023-05-10T19:09:45.673Z,100250.88
2023-05-10T19:12:15.497Z,100250.00
2023-05-10T19:14:43.814Z,100251.06
2023-05-10T19:17:14.351Z,100250.03
2023-05-10T19:19:44.006Z,100252.13
2023-05-10T19:22:12.387Z,100263.28
2023-05-10T19:24:41.015Z,100260.03
2023-05-10T19:27:10.076Z,100269.91
2023-05-10T19:29:39.602Z,100265.19
2023-05-10T19:32:09.642Z,100270.47
2023-05-10T19:34:37.830Z,100272.84
2023-05-10T19:37:05.965Z,100272.69
2023-05-10T19:39:34.146Z,100274.44
2023-05-10T19:42:05.634Z,100274.59
2023-05-10T19:44:36.778Z,100273.69
2023-05-10T19:47:09.343Z,100280.16
2023-05-10T19:49:41.966Z,100278.13
2023-05-10T19:52:13.167Z,100277.50
2023-05-10T19:54:42.035Z,100292.78
2023-05-10T19:57:11.955Z,100286.47
2023-05-10T19:59:40.655Z,100297.63
2023-05-10T20:02:10.137Z,100299.97
2023-05-10T20:04:38.155Z,100306.44
2023-05-10T20:07:07.350Z,100297.78
2023-05-10T20:09:35.750Z,100303.66
2023-05-10T20:12:04.635Z,100296.16
2023-05-10T20:14:33.408Z,100303.22
2023-05-10T20:17:01.779Z,100302.50
2023-05-10T20:19:31.544Z,100299.84
2023-05-10T20:21:59.845Z,100308.66
2023-05-10T20:24:28.519Z,100301.44
2023-05-10T20:26:57.565Z,100309.94
2023-05-10T20:29:25.797Z,100308.03
2023-05-10T20:31:54.285Z,100315.34
2023-05-10T20:34:22.654Z,100303.16
2023-05-10T20:36:54.088Z,100308.28
2023-05-10T20:39:22.260Z,100315.91
2023-05-10T20:41:50.634Z,100322.44
2023-05-10T20:44:18.970Z,100314.81
2023-05-10T20:46:47.279Z,100311.88
2023-05-10T20:49:15.468Z,100313.78
2023-05-10T20:51:44.189Z,100312.41
2023-05-10T20:54:14.023Z,100320.63
2023-05-10T20:56:42.316Z,100316.31
2023-05-10T20:59:11.278Z,100318.50
2023-05-10T21:01:39.965Z,100323.59
2023-05-10T21:04:08.137Z,100317.72
2023-05-10T21:06:36.544Z,100319.72
2023-05-10T21:09:06.505Z,100323.91
2023-05-10T21:11:36.590Z,100326.97
2023-05-10T21:14:04.867Z,100312.88
2023-05-10T21:16:33.661Z,100322.63
2023-05-10T21:19:01.814Z,100316.16
2023-05-10T21:21:32.572Z,100321.09
2023-05-10T21:24:02.282Z,100319.13
2023-05-10T21:26:31.474Z,100316.06
2023-05-10T21:29:01.212Z,100316.44
2023-05-10T21:31:29.858Z,100315.97
2023-05-10T21:33:58.543Z,100306.41
2023-05-10T21:36:28.030Z,100317.53
2023-05-10T21:38:57.499Z,100319.81
2023-05-10T21:41:25.641Z,100318.75
2023-05-10T21:43:54.325Z,100324.38
2023-05-10T21:46:24.403Z,100322.56
2023-05-10T21:48:52.632Z,100332.22
2023-05-10T21:51:22.383Z,100327.81
2023-05-10T21:53:50.674Z,100323.38
2023-05-10T21:56:19.072Z,100324.50
2023-05-10T21:58:47.237Z,100319.75
2023-05-10T22:01:18.131Z,100326.63
2023-05-10T22:03:47.901Z,100325.00
2023-05-10T22:06:16.238Z,100317.63
2023-05-10T22:08:44.799Z,100325.63
2023-05-10T22:11:13.174Z,100328.25
2023-05-10T22:13:43.365Z,100320.88
2023-05-10T22:16:11.617Z,100322.19
2023-05-10T22:18:40.158Z,100326.25
2023-05-10T22:21:12.003Z,100332.97
2023-05-10T22:23:40.161Z,100329.28
2023-05-10T22:26:08.764Z,100333.75
2023-05-10T22:28:37.245Z,100327.84
2023-05-10T22:31:10.607Z,100325.66
2023-05-10T22:33:38.813Z,100330.31
2023-05-10T22:36:07.365Z,100333.47
2023-05-10T22:38:37.814Z,100336.47
2023-05-10T22:41:06.543Z,100330.44
2023-05-10T22:43:34.761Z,100324.34
2023-05-10T22:46:03.021Z,100333.63
2023-05-10T22:48:32.384Z,100328.47
2023-05-10T22:51:00.763Z,100334.03
2023-05-10T22:53:28.885Z,100335.91
2023-05-10T22:55:58.927Z,100335.16
2023-05-10T22:58:29.324Z,100338.69
2023-05-10T23:00:57.670Z,100348.28
2023-05-10T23:03:26.838Z,100342.56
2023-05-10T23:05:55.299Z,100346.47
2023-05-10T23:08:24.734Z,100343.53
2023-05-10T23:10:54.519Z,100347.44
2023-05-10T23:13:24.824Z,100341.16
2023-05-10T23:15:54.289Z,100343.75
2023-05-10T23:18:22.570Z,100345.63
2023-05-10T23:20:51.544Z,100344.13
2023-05-10T23:23:19.890Z,100341.19
2023-05-10T23:25:50.401Z,100349.16
2023-05-10T23:28:18.836Z,100340.47
2023-05-10T23:30:48.389Z,100344.56
2023-05-10T23:33:16.454Z,100348.81
2023-05-10T23:35:47.340Z,100350.66
2023-05-10T23:38:17.487Z,100354.19
2023-05-10T23:40:49.528Z,100353.84
2023-05-10T23:43:19.773Z,100354.38
2023-05-10T23:45:55.310Z,100355.50
2023-05-10T23:48:24.100Z,100351.84
2023-05-10T23:50:52.534Z,100350.19
2023-05-10T23:53:23.211Z,100358.31
2023-05-10T23:55:51.607Z,100349.09
2023-05-10T23:58:21.169Z,100347.44
